Auxier, Kentucky
Current Conditions -  °F | °C
As of 11:15 AM on Thursday 29 Jan 2015 (Local Time) from KSJS Reporting Station
Drizzle Drizzle  
Wind Chill: 34°   Ceiling: 3400
Heat Index: 41°   Visibility: 10mi
Dew Point: 34°   Wind: 13mph
Humidity: 75%   Direction: 210°SSW
Pressure: 30"   Gusts: NA
Location:  37.74°N, 82.76°W
Report Text: KSJS 291615Z AUTO 21011KT 10SM -DZ BKN034 OVC048 05/01 A3000 RMK AO2 T00510010
Loading
Personal Weather Stations






























Interactive Weather Map New forecast layout! Learn more

10-Day Weather Forecast

Advertisements
Track Severe Weather on mobile